Time;durP1;ratioP1;P1;durP2;ratioP2;P2;SDS_P1;SDS_P2;PMS_P1;PMS_P2;Temp;Humidity;BMP_temperature;BMP_pressure;BME280_temperature;BME280_humidity;BME280_pressure;Samples;Min_cycle;Max_cycle;Signal;HPM_P1;HPM_P2
2024/01/29 00:03:15;;;;;;;7.57;4.15;;;;;;;1.55;nan;102335.97;10319350;28;20643;-81
2024/01/29 00:08:16;;;;;;;5.35;3.65;;;;;;;1.54;nan;102354.13;10314476;28;20179;-82
2024/01/29 00:13:16;;;;;;;5.47;3.40;;;;;;;1.45;nan;102370.50;10319848;28;20047;-82
2024/01/29 00:18:17;;;;;;;5.55;3.67;;;;;;;1.40;nan;102374.53;10313682;28;20054;-83
2024/01/29 00:23:17;;;;;;;6.82;3.63;;;;;;;1.32;nan;102379.06;10310005;28;20042;-82
2024/01/29 00:28:18;;;;;;;5.28;3.40;;;;;;;1.19;nan;102355.03;10318759;28;20050;-82
2024/01/29 00:33:18;;;;;;;13.63;4.25;;;;;;;1.13;nan;102355.66;10270823;28;20044;-74
2024/01/29 00:38:20;;;;;;;4.43;3.33;;;;;;;1.10;nan;102366.84;10318605;28;20459;-82
2024/01/29 00:43:20;;;;;;;6.97;3.90;;;;;;;1.03;nan;102371.16;10318161;28;20059;-83
2024/01/29 00:48:22;;;;;;;10.50;4.28;;;;;;;1.09;nan;102392.25;10319505;28;20030;-83
2024/01/29 00:53:22;;;;;;;7.93;3.97;;;;;;;1.15;nan;102394.34;10310041;28;20096;-82
2024/01/29 00:58:23;;;;;;;6.03;3.80;;;;;;;1.16;nan;102387.94;10321302;28;20041;-82
2024/01/29 01:03:24;;;;;;;8.00;3.60;;;;;;;1.05;nan;102385.44;10300358;28;20045;-82
2024/01/29 01:08:24;;;;;;;7.95;4.13;;;;;;;1.06;nan;102387.16;10302075;28;20045;-83
2024/01/29 01:13:25;;;;;;;8.55;3.63;;;;;;;0.99;nan;102392.31;10315608;28;20093;-80
2024/01/29 01:18:25;;;;;;;7.70;4.03;;;;;;;0.94;nan;102395.50;10320156;28;20050;-83
2024/01/29 01:23:25;;;;;;;7.45;3.88;;;;;;;0.80;nan;102385.16;10283111;28;20086;-82
2024/01/29 01:28:26;;;;;;;6.25;4.25;;;;;;;0.81;nan;102395.03;10317825;28;20058;-83
2024/01/29 01:33:26;;;;;;;5.95;3.80;;;;;;;0.76;nan;102402.75;10318148;28;20057;-83
2024/01/29 01:38:27;;;;;;;7.07;4.03;;;;;;;0.60;nan;102396.13;10311996;28;20039;-83
2024/01/29 01:43:27;;;;;;;7.70;4.07;;;;;;;0.65;nan;102413.81;10310317;28;20517;-82
2024/01/29 01:48:28;;;;;;;5.22;3.70;;;;;;;0.66;nan;102431.75;10312719;28;20474;-83
2024/01/29 01:53:30;;;;;;;5.47;3.88;;;;;;;0.48;nan;102402.75;10301250;28;20445;-83
2024/01/29 01:58:31;;;;;;;5.70;4.00;;;;;;;0.49;nan;102425.28;10299815;28;20129;-82
2024/01/29 02:03:31;;;;;;;5.28;3.58;;;;;;;0.38;nan;102427.19;10282750;28;20419;-83
2024/01/29 02:08:32;;;;;;;7.00;4.18;;;;;;;0.20;nan;102413.56;10288605;28;20043;-74
2024/01/29 02:13:33;;;;;;;5.90;3.50;;;;;;;0.12;nan;102399.91;10289573;28;20043;-82
2024/01/29 02:18:33;;;;;;;11.27;4.68;;;;;;;0.12;nan;102399.06;10295157;28;20031;-83
2024/01/29 02:23:34;;;;;;;7.77;4.20;;;;;;;0.40;nan;102413.50;10303932;28;20035;-83
2024/01/29 02:28:34;;;;;;;6.13;3.88;;;;;;;0.50;nan;102418.88;10318164;28;20054;-83
2024/01/29 02:33:35;;;;;;;5.22;3.42;;;;;;;0.66;nan;102420.91;10309454;28;20394;-82
2024/01/29 02:38:36;;;;;;;6.00;3.40;;;;;;;0.77;nan;102399.03;10303163;28;20034;-82
2024/01/29 02:43:37;;;;;;;6.63;3.53;;;;;;;0.81;nan;102411.28;10274844;28;20169;-83
2024/01/29 02:48:38;;;;;;;4.78;3.30;;;;;;;0.84;nan;102410.97;10304486;28;20383;-82
2024/01/29 02:53:38;;;;;;;8.45;4.07;;;;;;;0.85;nan;102412.69;10308197;28;20064;-82
2024/01/29 02:58:39;;;;;;;5.47;3.20;;;;;;;0.83;nan;102409.28;10309683;28;20035;-81
2024/01/29 03:03:39;;;;;;;10.25;3.97;;;;;;;0.70;nan;102392.50;10303635;28;20077;-82
2024/01/29 03:08:40;;;;;;;8.55;4.05;;;;;;;0.77;nan;102407.19;10285217;28;20038;-82
2024/01/29 03:13:40;;;;;;;5.45;3.70;;;;;;;0.75;nan;102401.91;10322125;28;20042;-82
2024/01/29 03:18:41;;;;;;;8.45;3.85;;;;;;;0.77;nan;102404.47;10310462;28;20473;-81
2024/01/29 03:23:42;;;;;;;6.72;4.57;;;;;;;0.80;nan;102401.44;10311472;28;20074;-82
2024/01/29 03:28:43;;;;;;;7.15;3.42;;;;;;;0.84;nan;102404.69;10300009;28;20054;-82
2024/01/29 03:33:43;;;;;;;7.50;5.03;;;;;;;0.63;nan;102380.59;10305689;28;20038;-82
2024/01/29 03:38:44;;;;;;;5.73;3.73;;;;;;;0.59;nan;102405.25;10301904;28;20045;-82
2024/01/29 03:43:44;;;;;;;7.68;4.28;;;;;;;0.50;nan;102400.75;10314394;28;20039;-83
2024/01/29 03:48:44;;;;;;;6.95;4.13;;;;;;;0.43;nan;102402.34;10281507;28;20042;-81
2024/01/29 03:53:45;;;;;;;6.97;4.37;;;;;;;0.33;nan;102406.94;10316621;28;20059;-81
2024/01/29 03:58:45;;;;;;;8.57;4.83;;;;;;;0.10;nan;102395.63;10305175;28;20054;-82
2024/01/29 04:03:46;;;;;;;8.80;4.88;;;;;;;0.03;nan;102400.81;10301234;28;20094;-82
2024/01/29 04:08:46;;;;;;;6.23;4.03;;;;;;;-0.09;nan;102388.44;10310056;28;20042;-82
2024/01/29 04:13:47;;;;;;;7.27;4.37;;;;;;;-0.19;nan;102369.50;10305715;28;20139;-82
2024/01/29 04:18:47;;;;;;;8.07;5.00;;;;;;;-0.22;nan;102369.81;10315120;28;20042;-82
2024/01/29 04:23:48;;;;;;;8.30;4.80;;;;;;;-0.10;nan;102362.38;10325502;28;20049;-82
2024/01/29 04:28:48;;;;;;;7.23;4.47;;;;;;;-0.05;nan;102352.78;10308537;28;20039;-82
2024/01/29 04:33:49;;;;;;;6.63;4.20;;;;;;;0.27;nan;102343.41;10327856;28;20159;-76
2024/01/29 04:38:49;;;;;;;9.43;4.30;;;;;;;0.66;nan;102342.31;10307994;28;20062;-82
2024/01/29 04:43:50;;;;;;;5.10;3.57;;;;;;;1.07;nan;102356.28;10310258;28;20042;-83
2024/01/29 04:48:50;;;;;;;6.50;4.23;;;;;;;1.29;nan;102363.09;10312402;28;20042;-82
2024/01/29 04:53:51;;;;;;;7.70;4.47;;;;;;;1.39;nan;102366.59;10303604;28;20065;-83
2024/01/29 04:58:51;;;;;;;11.88;4.25;;;;;;;1.39;nan;102381.00;10319910;28;20034;-83
2024/01/29 05:03:53;;;;;;;6.25;3.97;;;;;;;1.62;nan;102372.34;10295958;28;20490;-83
2024/01/29 05:08:55;;;;;;;7.30;4.55;;;;;;;1.51;nan;102353.59;10312911;28;20038;-83
2024/01/29 05:13:55;;;;;;;7.85;4.70;;;;;;;1.60;nan;102391.50;10289242;28;20081;-82
2024/01/29 05:18:56;;;;;;;5.82;3.88;;;;;;;1.41;nan;102357.28;10313876;28;20042;-83
2024/01/29 05:23:56;;;;;;;8.48;3.70;;;;;;;1.34;nan;102363.47;10308108;28;20034;-82
2024/01/29 05:28:57;;;;;;;7.35;4.40;;;;;;;1.06;nan;102370.88;10312246;28;20054;-73
2024/01/29 05:33:57;;;;;;;18.25;4.65;;;;;;;0.88;nan;102351.88;10308781;28;20438;-82
2024/01/29 05:38:58;;;;;;;6.78;4.15;;;;;;;1.06;nan;102373.59;10309830;28;20041;-82
2024/01/29 05:43:58;;;;;;;6.40;4.35;;;;;;;1.12;nan;102360.25;10314285;28;20074;-84
2024/01/29 05:48:59;;;;;;;9.38;5.05;;;;;;;1.01;nan;102357.75;10277386;28;20065;-84
2024/01/29 05:54:00;;;;;;;10.05;4.75;;;;;;;0.96;nan;102355.50;10298743;28;20085;-82
2024/01/29 05:59:00;;;;;;;7.40;4.53;;;;;;;0.80;nan;102364.31;10301391;28;20134;-82
2024/01/29 06:04:01;;;;;;;7.90;5.00;;;;;;;0.62;nan;102360.75;10304863;28;20368;-82
2024/01/29 06:09:01;;;;;;;6.93;4.47;;;;;;;0.56;nan;102362.22;10285077;28;20476;-82
2024/01/29 06:14:02;;;;;;;8.00;4.97;;;;;;;0.63;nan;102376.00;10300888;28;20154;-78
2024/01/29 06:19:02;;;;;;;9.90;4.53;;;;;;;0.62;nan;102366.19;10297300;28;20063;-82
2024/01/29 06:24:03;;;;;;;11.27;5.95;;;;;;;1.00;nan;102408.44;10312625;28;20439;-82
2024/01/29 06:29:04;;;;;;;8.77;4.82;;;;;;;1.30;nan;102383.78;10320513;28;20042;-82
2024/01/29 06:34:04;;;;;;;9.23;4.75;;;;;;;1.41;nan;102364.56;10319696;28;20130;-83
2024/01/29 06:39:07;;;;;;;9.65;4.47;;;;;;;1.69;nan;102367.97;10310201;28;20051;-83
2024/01/29 06:44:07;;;;;;;8.68;4.60;;;;;;;1.81;nan;102365.88;10287752;28;20038;-82
2024/01/29 06:49:08;;;;;;;7.93;4.15;;;;;;;1.96;nan;102363.41;10321423;28;20054;-82
2024/01/29 06:54:08;;;;;;;8.65;4.45;;;;;;;2.07;nan;102360.44;10292518;28;20042;-82
2024/01/29 06:59:10;;;;;;;8.95;4.57;;;;;;;2.10;nan;102357.38;10318927;28;20043;-82
2024/01/29 07:04:10;;;;;;;7.88;4.55;;;;;;;2.25;nan;102373.91;10296304;28;20038;-83
2024/01/29 07:09:11;;;;;;;8.18;4.07;;;;;;;2.37;nan;102394.34;10311422;28;20038;-82
2024/01/29 07:14:11;;;;;;;6.93;4.63;;;;;;;2.42;nan;102399.31;10311333;28;20038;-80
2024/01/29 07:19:12;;;;;;;8.82;4.75;;;;;;;2.31;nan;102400.44;10308317;28;20047;-83
2024/01/29 07:24:13;;;;;;;7.45;4.60;;;;;;;2.30;nan;102415.06;10311787;28;20078;-82
2024/01/29 07:29:13;;;;;;;14.98;5.05;;;;;;;2.16;nan;102399.34;10303588;28;20742;-82
2024/01/29 07:34:14;;;;;;;8.32;4.32;;;;;;;2.09;nan;102401.00;10336082;28;20039;-82
2024/01/29 07:39:14;;;;;;;7.63;4.65;;;;;;;2.16;nan;102419.22;10308726;28;20034;-83
2024/01/29 07:44:16;;;;;;;9.18;5.03;;;;;;;2.19;nan;102432.50;10315790;28;20354;-83
2024/01/29 07:49:16;;;;;;;9.07;5.53;;;;;;;2.06;nan;102410.31;10308836;28;20105;-82
2024/01/29 07:54:17;;;;;;;7.78;5.22;;;;;;;2.19;nan;102434.34;10298450;28;20333;-82
2024/01/29 07:59:17;;;;;;;8.82;6.05;;;;;;;2.16;nan;102440.97;10298034;28;20118;-83
2024/01/29 08:04:18;;;;;;;8.90;5.82;;;;;;;2.13;nan;102414.13;10318414;28;20105;-81
2024/01/29 08:09:18;;;;;;;9.65;5.10;;;;;;;2.42;nan;102440.94;10300207;28;20070;-83
2024/01/29 08:14:19;;;;;;;10.23;5.88;;;;;;;2.58;nan;102434.75;10318519;28;20042;-82
2024/01/29 08:19:19;;;;;;;8.93;5.85;;;;;;;2.73;nan;102437.69;10315879;28;20374;-83
2024/01/29 08:24:20;;;;;;;9.38;5.50;;;;;;;2.83;nan;102440.25;10301106;28;20050;-84
2024/01/29 08:29:20;;;;;;;13.50;6.60;;;;;;;3.01;nan;102451.03;10305205;28;20053;-82
2024/01/29 08:34:23;;;;;;;9.57;5.22;;;;;;;3.08;nan;102434.88;10292127;28;20039;-83
2024/01/29 08:39:23;;;;;;;9.15;5.13;;;;;;;3.21;nan;102447.00;10303845;28;20094;-83
2024/01/29 08:44:25;;;;;;;9.25;5.40;;;;;;;3.22;nan;102431.50;10293744;28;20042;-84
2024/01/29 08:49:25;;;;;;;9.90;6.53;;;;;;;3.51;nan;102462.88;10318514;28;20038;-83
2024/01/29 08:54:26;;;;;;;9.05;5.82;;;;;;;3.64;nan;102453.19;10305297;28;20070;-83
2024/01/29 08:59:29;;;;;;;9.27;5.60;;;;;;;3.68;nan;102445.53;10278761;28;20061;-83
2024/01/29 09:04:30;;;;;;;9.70;5.50;;;;;;;3.91;nan;102458.47;10299915;28;20101;-83
2024/01/29 09:09:30;;;;;;;11.05;5.72;;;;;;;3.91;nan;102439.41;10303281;28;20092;-82
2024/01/29 09:14:31;;;;;;;12.68;6.28;;;;;;;4.10;nan;102469.00;10315627;28;20131;-82
2024/01/29 09:19:31;;;;;;;10.73;6.93;;;;;;;4.22;nan;102478.53;10313972;28;20038;-77
2024/01/29 09:24:32;;;;;;;9.40;5.32;;;;;;;4.20;nan;102450.59;10278276;28;20086;-82
2024/01/29 09:29:32;;;;;;;9.45;5.32;;;;;;;4.39;nan;102473.03;10302286;28;20455;-82
2024/01/29 09:34:33;;;;;;;12.32;6.00;;;;;;;4.52;nan;102467.88;10284083;28;20406;-83
2024/01/29 09:39:33;;;;;;;6.40;5.28;;;;;;;4.74;nan;102498.19;10303337;28;20543;-81
2024/01/29 09:44:38;;;;;;;8.23;5.97;;;;;;;4.91;nan;102505.25;10301437;28;20047;-81
2024/01/29 09:49:39;;;;;;;10.68;5.88;;;;;;;4.97;nan;102481.88;10311595;28;20035;-81
2024/01/29 09:54:40;;;;;;;10.23;5.78;;;;;;;5.11;nan;102483.84;10293391;28;20058;-81
2024/01/29 09:59:41;;;;;;;16.92;7.25;;;;;;;5.22;nan;102468.94;10282163;28;20039;-82
2024/01/29 10:04:41;;;;;;;9.85;5.32;;;;;;;5.47;nan;102484.13;10290886;28;20093;-82
2024/01/29 10:09:42;;;;;;;8.40;5.55;;;;;;;5.62;nan;102486.09;10298173;28;20042;-82
2024/01/29 10:14:42;;;;;;;11.07;7.10;;;;;;;5.70;nan;102483.28;10301581;28;20038;-82
2024/01/29 10:19:43;;;;;;;8.15;5.43;;;;;;;5.89;nan;102509.31;10309535;28;20070;-83
2024/01/29 10:24:44;;;;;;;9.30;6.60;;;;;;;6.01;nan;102509.72;10304315;28;20038;-83
2024/01/29 10:29:48;;;;;;;9.85;6.72;;;;;;;6.21;nan;102515.53;10307714;28;20061;-83
2024/01/29 10:34:48;;;;;;;8.63;5.50;;;;;;;6.38;nan;102508.88;10310370;28;20030;-83
2024/01/29 10:39:49;;;;;;;9.75;5.60;;;;;;;6.46;nan;102502.47;10286008;28;20042;-81
2024/01/29 10:44:49;;;;;;;10.07;6.50;;;;;;;6.53;nan;102489.75;10275690;28;20574;-84
2024/01/29 10:49:51;;;;;;;11.93;6.57;;;;;;;6.72;nan;102501.16;10304946;28;20035;-83
2024/01/29 10:54:52;;;;;;;10.73;6.95;;;;;;;6.77;nan;102485.03;10310484;28;20035;-83
2024/01/29 10:59:52;;;;;;;10.93;6.53;;;;;;;6.85;nan;102493.16;10297245;28;20034;-79
2024/01/29 11:04:53;;;;;;;10.80;6.68;;;;;;;6.97;nan;102485.31;10262066;28;20050;-83
2024/01/29 11:10:09;;;;;;;12.55;6.90;;;;;;;7.12;nan;102471.56;10298556;28;20031;-82
2024/01/29 11:15:10;;;;;;;15.60;6.95;;;;;;;7.36;nan;102473.09;10296671;28;20397;-83
2024/01/29 11:20:12;;;;;;;10.40;6.70;;;;;;;7.59;nan;102486.66;10293117;28;20039;-83
2024/01/29 11:25:16;;;;;;;11.80;6.75;;;;;;;7.71;nan;102465.91;10295039;28;20053;-83
2024/01/29 11:30:16;;;;;;;11.80;6.70;;;;;;;7.97;nan;102481.72;10294772;28;20086;-83
2024/01/29 11:35:18;;;;;;;13.68;7.65;;;;;;;8.06;nan;102463.22;10299476;28;20095;-84
2024/01/29 11:40:35;;;;;;;10.55;7.78;;;;;;;8.34;nan;102482.44;10284255;28;20042;-83
2024/01/29 11:45:36;;;;;;;11.02;7.05;;;;;;;8.43;nan;102480.44;10296077;28;20039;-83
2024/01/29 11:50:45;;;;;;;12.00;8.15;;;;;;;8.52;nan;102484.72;10300851;28;20127;-79
2024/01/29 11:55:47;;;;;;;16.42;8.02;;;;;;;8.40;nan;102467.09;10299751;28;20050;-80
2024/01/29 12:00:51;;;;;;;14.38;7.65;;;;;;;8.83;nan;102510.91;10271697;28;20066;-80
2024/01/29 12:05:51;;;;;;;11.98;7.65;;;;;;;8.92;nan;102509.66;10294868;28;20041;-79
2024/01/29 12:11:03;;;;;;;13.38;7.38;;;;;;;9.19;nan;102501.56;10281570;28;20031;-81
2024/01/29 12:16:04;;;;;;;10.32;7.50;;;;;;;9.12;nan;102522.66;10288924;28;20039;-81
2024/01/29 12:21:06;;;;;;;13.55;8.80;;;;;;;8.81;nan;102515.75;10285023;28;20031;-82
2024/01/29 12:26:06;;;;;;;16.45;8.82;;;;;;;8.74;nan;102536.81;10266405;28;20051;-82
2024/01/29 12:31:07;;;;;;;11.85;8.20;;;;;;;8.53;nan;102529.50;10295896;28;20045;-81
2024/01/29 12:36:11;;;;;;;13.43;8.40;;;;;;;8.47;nan;102553.09;10288433;28;20046;-83
2024/01/29 12:41:12;;;;;;;14.30;8.65;;;;;;;8.50;nan;102535.41;10293747;28;20040;-82
2024/01/29 12:46:13;;;;;;;11.57;7.97;;;;;;;8.54;nan;102537.53;10287142;28;20034;-82
2024/01/29 12:51:14;;;;;;;14.30;9.10;;;;;;;8.63;nan;102535.47;10309448;28;20042;-82
2024/01/29 12:56:14;;;;;;;11.80;8.55;;;;;;;8.68;nan;102555.78;10291192;28;20076;-82
2024/01/29 13:01:15;;;;;;;13.30;9.55;;;;;;;8.67;nan;102559.56;10300629;28;20062;-82
2024/01/29 13:06:15;;;;;;;20.67;10.73;;;;;;;8.57;nan;102559.06;10276420;28;20035;-82
2024/01/29 13:11:16;;;;;;;18.92;10.85;;;;;;;8.55;nan;102580.38;10319683;28;20050;-82
2024/01/29 13:16:16;;;;;;;22.00;11.18;;;;;;;8.42;nan;102561.09;10314801;28;20053;-82
2024/01/29 13:21:17;;;;;;;24.85;11.68;;;;;;;8.35;nan;102565.63;10281457;28;20058;-75
2024/01/29 13:26:18;;;;;;;25.70;13.18;;;;;;;8.34;nan;102574.91;10304593;28;20092;-81
2024/01/29 13:31:18;;;;;;;25.00;13.63;;;;;;;8.25;nan;102561.34;10280022;28;20475;-81
2024/01/29 13:36:19;;;;;;;26.20;12.98;;;;;;;8.28;nan;102566.41;10300889;28;20050;-80
2024/01/29 13:41:19;;;;;;;20.98;12.95;;;;;;;8.22;nan;102558.97;10290031;28;20062;-81
2024/01/29 13:46:20;;;;;;;29.00;14.18;;;;;;;8.21;nan;102554.53;10311098;28;20042;-80
2024/01/29 13:51:20;;;;;;;23.38;11.98;;;;;;;8.26;nan;102571.25;10300836;28;20038;-80
2024/01/29 13:56:21;;;;;;;25.17;12.77;;;;;;;8.25;nan;102583.28;10291288;28;20039;-79
2024/01/29 14:01:21;;;;;;;31.40;15.00;;;;;;;8.17;nan;102569.69;10302744;28;20047;-79
2024/01/29 14:06:22;;;;;;;33.25;13.43;;;;;;;8.18;nan;102579.59;10301556;28;20107;-76
2024/01/29 14:11:23;;;;;;;29.98;13.02;;;;;;;8.17;nan;102580.69;10288146;28;20143;-79
2024/01/29 14:16:23;;;;;;;18.55;11.50;;;;;;;8.21;nan;102571.00;10287291;28;20038;-78
2024/01/29 14:21:24;;;;;;;22.75;12.23;;;;;;;8.23;nan;102568.91;10310215;28;20095;-79
2024/01/29 14:26:24;;;;;;;22.73;11.00;;;;;;;8.22;nan;102567.19;10288342;28;20054;-79
2024/01/29 14:31:25;;;;;;;19.33;12.15;;;;;;;8.13;nan;102556.56;10273054;28;20063;-80
2024/01/29 14:36:25;;;;;;;23.95;12.57;;;;;;;8.17;nan;102569.69;10290228;28;20039;-79
2024/01/29 14:41:26;;;;;;;25.95;12.82;;;;;;;8.11;nan;102565.00;10291694;28;20054;-79
2024/01/29 14:46:26;;;;;;;28.38;15.25;;;;;;;8.03;nan;102554.16;10321331;28;20034;-79
2024/01/29 14:51:29;;;;;;;27.35;14.43;;;;;;;8.09;nan;102569.84;10310138;28;20040;-76
2024/01/29 14:56:30;;;;;;;25.77;13.85;;;;;;;8.07;nan;102570.03;10299943;28;20511;-79
2024/01/29 15:01:33;;;;;;;29.83;15.52;;;;;;;7.95;nan;102554.28;10297422;28;20097;-80
2024/01/29 15:06:34;;;;;;;36.03;15.52;;;;;;;7.95;nan;102562.50;10307320;28;20030;-79
2024/01/29 15:11:35;;;;;;;38.08;14.90;;;;;;;7.96;nan;102569.69;10298173;28;20046;-79
2024/01/29 15:16:35;;;;;;;34.00;16.38;;;;;;;7.91;nan;102569.44;10316644;28;20090;-79
2024/01/29 15:21:35;;;;;;;30.88;14.90;;;;;;;7.93;nan;102583.81;10313620;28;20053;-79
2024/01/29 15:26:36;;;;;;;30.52;16.17;;;;;;;7.78;nan;102560.03;10318727;28;20399;-79
2024/01/29 15:31:36;;;;;;;39.90;16.33;;;;;;;7.78;nan;102571.00;10320481;28;20046;-79
2024/01/29 15:36:37;;;;;;;24.52;13.55;;;;;;;7.72;nan;102582.72;10300405;28;20089;-78
2024/01/29 15:41:37;;;;;;;30.27;14.35;;;;;;;7.66;nan;102587.09;10301334;28;20051;-79
2024/01/29 15:46:42;;;;;;;28.00;14.35;;;;;;;7.63;nan;102594.88;10321483;28;20042;-79
2024/01/29 15:51:42;;;;;;;29.05;15.30;;;;;;;7.49;nan;102585.63;10315739;28;20810;-78
2024/01/29 15:56:43;;;;;;;34.28;15.25;;;;;;;7.54;nan;102599.59;10329207;28;20058;-79
2024/01/29 16:01:43;;;;;;;29.48;15.48;;;;;;;7.18;nan;102559.31;10310741;28;20038;-79
2024/01/29 16:06:44;;;;;;;30.00;16.10;;;;;;;7.38;nan;102595.19;10311232;28;20184;-79
2024/01/29 16:11:44;;;;;;;27.52;13.75;;;;;;;7.35;nan;102600.19;10305461;28;20038;-78
2024/01/29 16:16:45;;;;;;;24.52;14.35;;;;;;;7.25;nan;102592.25;10287810;28;20050;-72
2024/01/29 16:21:45;;;;;;;23.75;14.10;;;;;;;7.27;nan;102607.47;10315307;28;20038;-79
2024/01/29 16:26:48;;;;;;;27.35;14.43;;;;;;;7.25;nan;102603.22;10307913;28;20099;-79
2024/01/29 16:31:52;;;;;;;30.17;15.48;;;;;;;7.23;nan;102613.50;10315490;28;20039;-79
2024/01/29 16:36:53;;;;;;;42.88;26.13;;;;;;;7.21;nan;102615.59;10315049;28;20062;-79
2024/01/29 16:41:53;;;;;;;28.30;18.08;;;;;;;7.20;nan;102622.13;10307764;28;20066;-79
2024/01/29 16:46:54;;;;;;;26.58;15.15;;;;;;;7.17;nan;102627.97;10309224;28;20035;-79
2024/01/29 16:51:54;;;;;;;23.33;14.23;;;;;;;7.17;nan;102638.91;10310492;28;20502;-80
2024/01/29 16:57:04;;;;;;;21.48;14.38;;;;;;;7.13;nan;102637.59;10318837;28;20518;-79
2024/01/29 17:02:05;;;;;;;23.85;14.40;;;;;;;7.15;nan;102639.13;10288933;28;20755;-78
2024/01/29 17:07:05;;;;;;;23.67;14.45;;;;;;;7.05;nan;102628.44;10311041;28;20252;-79
2024/01/29 17:12:06;;;;;;;22.77;13.13;;;;;;;7.06;nan;102630.13;10311905;28;20034;-79
2024/01/29 17:17:07;;;;;;;19.35;12.65;;;;;;;7.10;nan;102638.84;10303978;28;20062;-80
2024/01/29 17:22:07;;;;;;;20.83;12.95;;;;;;;7.01;nan;102635.34;10317535;28;20049;-79
2024/01/29 17:27:08;;;;;;;25.67;13.05;;;;;;;6.98;nan;102632.97;10308772;28;20065;-79
2024/01/29 17:32:08;;;;;;;19.75;13.68;;;;;;;7.00;nan;102639.09;10313183;28;20035;-79
2024/01/29 17:37:09;;;;;;;19.17;13.38;;;;;;;6.77;nan;102605.47;10302021;28;20042;-79
2024/01/29 17:42:10;;;;;;;18.77;12.98;;;;;;;6.46;nan;102568.13;10296017;28;20046;-77
2024/01/29 17:47:11;;;;;;;18.35;12.52;;;;;;;7.10;nan;102657.16;10293190;28;20055;-72
2024/01/29 17:52:12;;;;;;;21.55;13.10;;;;;;;7.04;nan;102651.38;10312052;28;21535;-79
2024/01/29 17:57:12;;;;;;;21.27;12.70;;;;;;;6.96;nan;102626.81;10317122;28;20082;-79
2024/01/29 18:02:13;;;;;;;22.98;12.60;;;;;;;7.15;nan;102646.47;10306893;28;20042;-79
2024/01/29 18:07:13;;;;;;;20.58;11.90;;;;;;;7.15;nan;102647.34;10309869;28;20038;-79
2024/01/29 18:12:14;;;;;;;15.98;11.60;;;;;;;7.11;nan;102645.16;10305001;28;20400;-79
2024/01/29 18:17:14;;;;;;;19.08;12.90;;;;;;;7.08;nan;102641.75;10333495;28;20491;-79
2024/01/29 18:22:15;;;;;;;17.58;12.77;;;;;;;7.10;nan;102643.47;10303873;28;20041;-78
2024/01/29 18:27:15;;;;;;;21.13;12.95;;;;;;;7.05;nan;102631.19;10305370;28;20039;-79
2024/01/29 18:32:15;;;;;;;19.52;12.90;;;;;;;7.18;nan;102657.06;10315954;28;20047;-76
2024/01/29 18:37:16;;;;;;;22.50;12.18;;;;;;;7.16;nan;102659.16;10321719;28;20097;-80
2024/01/29 18:42:17;;;;;;;23.00;13.40;;;;;;;7.08;nan;102641.75;10324671;28;20565;-79
2024/01/29 18:47:17;;;;;;;19.58;12.85;;;;;;;7.14;nan;102642.06;10319258;28;20053;-79
2024/01/29 18:52:18;;;;;;;19.00;12.75;;;;;;;7.06;nan;102638.34;10324758;28;20667;-79
2024/01/29 18:57:18;;;;;;;18.45;12.85;;;;;;;7.05;nan;102635.81;10314091;28;20419;-79
2024/01/29 19:02:19;;;;;;;18.88;11.82;;;;;;;7.01;nan;102643.56;10298679;28;20043;-79
2024/01/29 19:07:19;;;;;;;18.60;12.35;;;;;;;6.97;nan;102639.50;10324439;28;20057;-79
2024/01/29 19:12:19;;;;;;;16.88;11.85;;;;;;;6.87;nan;102628.78;10324904;28;20043;-79
2024/01/29 19:17:20;;;;;;;19.02;12.80;;;;;;;6.92;nan;102622.75;10318817;28;20030;-78
2024/01/29 19:22:20;;;;;;;20.35;13.02;;;;;;;6.96;nan;102636.94;10321205;28;20050;-79
2024/01/29 19:27:21;;;;;;;19.00;13.25;;;;;;;6.93;nan;102638.16;10322829;28;20058;-79
2024/01/29 19:32:21;;;;;;;17.65;11.93;;;;;;;6.90;nan;102627.56;10314715;28;20038;-79
2024/01/29 19:37:25;;;;;;;16.52;12.45;;;;;;;6.85;nan;102625.41;10320987;28;20035;-79
2024/01/29 19:42:25;;;;;;;20.92;12.10;;;;;;;6.77;nan;102619.16;10322921;28;20046;-79
2024/01/29 19:47:26;;;;;;;20.10;14.23;;;;;;;6.66;nan;102620.47;10319108;28;20042;-79
2024/01/29 19:52:26;;;;;;;21.92;14.05;;;;;;;6.51;nan;102628.66;10319070;28;20376;-78
2024/01/29 19:57:27;;;;;;;18.25;12.52;;;;;;;6.34;nan;102625.16;10318852;28;20106;-79
2024/01/29 20:02:28;;;;;;;22.02;13.32;;;;;;;6.15;nan;102629.25;10320705;28;20070;-77
2024/01/29 20:07:28;;;;;;;22.17;13.93;;;;;;;5.91;nan;102615.72;10307795;28;20046;-79
2024/01/29 20:12:30;;;;;;;21.23;13.65;;;;;;;5.78;nan;102633.53;10319229;28;20034;-79
2024/01/29 20:17:31;;;;;;;20.17;14.00;;;;;;;5.65;nan;102649.69;10320276;28;20038;-77
2024/01/29 20:22:31;;;;;;;24.10;15.57;;;;;;;5.50;nan;102626.84;10316197;28;20046;-79
2024/01/29 20:27:31;;;;;;;23.83;14.65;;;;;;;4.99;nan;102580.81;10318553;28;20042;-78
2024/01/29 20:32:32;;;;;;;20.10;14.27;;;;;;;5.24;nan;102620.66;10320535;28;20050;-78
2024/01/29 20:37:33;;;;;;;21.27;15.32;;;;;;;5.16;nan;102622.56;10316153;28;20046;-79
2024/01/29 20:42:33;;;;;;;22.33;15.68;;;;;;;4.83;nan;102578.97;10302507;28;20312;-79
2024/01/29 20:47:33;;;;;;;26.67;16.65;;;;;;;4.92;nan;102596.16;10318257;28;20137;-78
2024/01/29 20:52:34;;;;;;;25.35;16.60;;;;;;;4.98;nan;102615.44;10320269;28;20038;-78
2024/01/29 20:57:34;;;;;;;26.42;17.40;;;;;;;4.91;nan;102614.44;10319044;28;20053;-79
2024/01/29 21:02:35;;;;;;;25.67;17.00;;;;;;;4.79;nan;102602.19;10317399;28;20043;-79
2024/01/29 21:07:36;;;;;;;25.52;18.08;;;;;;;4.74;nan;102607.31;10318725;28;20062;-79
2024/01/29 21:12:40;;;;;;;28.05;17.88;;;;;;;4.73;nan;102606.44;10309660;28;20039;-79
2024/01/29 21:17:41;;;;;;;28.92;18.70;;;;;;;4.69;nan;102591.44;10318787;28;20042;-79
2024/01/29 21:22:41;;;;;;;23.25;16.65;;;;;;;4.47;nan;102545.81;10305294;28;20043;-78
2024/01/29 21:27:42;;;;;;;25.00;17.98;;;;;;;4.74;nan;102577.31;10303256;28;20038;-78
2024/01/29 21:32:42;;;;;;;29.50;18.23;;;;;;;4.69;nan;102571.50;10314014;28;20034;-79
2024/01/29 21:37:43;;;;;;;26.70;18.77;;;;;;;4.70;nan;102584.13;10316920;28;20070;-78
2024/01/29 21:42:43;;;;;;;28.98;18.55;;;;;;;4.68;nan;102583.44;10318791;28;20081;-79
2024/01/29 21:47:44;;;;;;;28.95;19.98;;;;;;;4.54;nan;102555.84;10321845;28;20041;-78
2024/01/29 21:52:44;;;;;;;31.33;21.27;;;;;;;4.58;nan;102575.44;10327910;28;20423;-79
2024/01/29 21:57:45;;;;;;;37.30;19.95;;;;;;;4.42;nan;102557.22;10329125;28;20050;-72
2024/01/29 22:02:45;;;;;;;30.73;21.10;;;;;;;4.43;nan;102565.22;10346402;28;20043;-78
2024/01/29 22:07:46;;;;;;;30.42;21.85;;;;;;;4.41;nan;102580.06;10326092;28;20039;-78
2024/01/29 22:12:46;;;;;;;31.25;21.35;;;;;;;4.32;nan;102570.19;10332481;28;20069;-78
2024/01/29 22:17:46;;;;;;;34.58;20.92;;;;;;;4.03;nan;102545.16;10329553;28;20042;-79
2024/01/29 22:22:48;;;;;;;28.85;20.65;;;;;;;4.10;nan;102572.56;10311308;28;20046;-79
2024/01/29 22:27:49;;;;;;;32.60;22.60;;;;;;;4.02;nan;102569.84;10342928;28;20061;-79
2024/01/29 22:32:49;;;;;;;33.65;20.95;;;;;;;3.95;nan;102579.69;10328158;28;20051;-78
2024/01/29 22:37:50;;;;;;;28.50;20.05;;;;;;;3.90;nan;102576.66;10327033;28;20407;-79
2024/01/29 22:42:51;;;;;;;37.63;22.38;;;;;;;3.81;nan;102578.50;10334186;28;20045;-78
2024/01/29 22:47:51;;;;;;;34.58;22.13;;;;;;;3.75;nan;102590.06;10326955;28;20045;-78
2024/01/29 22:52:52;;;;;;;34.63;21.92;;;;;;;3.59;nan;102569.09;10326526;28;20050;-77
2024/01/29 22:57:53;;;;;;;33.72;22.00;;;;;;;3.55;nan;102570.44;10321806;28;20053;-78
2024/01/29 23:02:54;;;;;;;33.75;23.17;;;;;;;3.32;nan;102549.28;10316127;28;20046;-78
2024/01/29 23:07:55;;;;;;;36.80;22.10;;;;;;;3.51;nan;102594.41;10317242;28;20042;-79
2024/01/29 23:12:55;;;;;;;32.70;21.83;;;;;;;3.38;nan;102573.13;10315097;28;20118;-78
2024/01/29 23:17:56;;;;;;;32.20;21.23;;;;;;;3.41;nan;102578.25;10307533;28;20050;-78
2024/01/29 23:22:57;;;;;;;34.85;23.75;;;;;;;3.24;nan;102557.41;10295567;28;20035;-78
2024/01/29 23:27:57;;;;;;;36.78;23.50;;;;;;;3.06;nan;102541.19;10313021;28;20499;-78
2024/01/29 23:32:57;;;;;;;37.72;23.10;;;;;;;3.24;nan;102573.75;10308409;28;20053;-79